Mars — XPC8385 — position and weather

sailwx.info

Track history (hours):
 
Tides and Currents Weather Stations Pressure Air Temp Water Temp Dewpoint Dewpoint Depression Visibility Wind Speed Wind Dir Waves Ship Positions

Mars

Last reported at 2015-Apr-21 00:07 UTC. Time now 2015-Apr-21 02:55 UTC.
Position N 55°17' E 014°49'.

Length 14 m; draft 1.7 m.

Type: Pilot. MMSI: 219001058.

Date/timePositionNaut miles runAvg speedWind from/ knotsBaromVisibWave heightAir tempDewpointWater temp
2015-Apr-21 00:07N 55°17' E 014°49'  
2015-Apr-14 23:19N 55°17' E 014°48'0 0.0
2015-Apr-14 22:31N 55°17' E 014°48'0 0.0
2015-Apr-14 21:21N 55°17' E 014°48'0 0.0
2015-Apr-14 20:27N 55°17' E 014°48'0 0.0
2015-Apr-14 19:27N 55°17' E 014°48'0 0.0
2015-Apr-14 18:33N 55°17' E 014°48'0 0.0
2015-Apr-14 17:33N 55°17' E 014°48'0 0.0
2015-Apr-14 16:33N 55°17' E 014°48'0 0.0
2015-Apr-14 15:27N 55°17' E 014°48'0 0.0
2015-Apr-14 14:33N 55°17' E 014°48'0 0.0
2015-Apr-14 13:33N 55°17' E 014°48'0 0.0
2015-Apr-14 12:33N 55°17' E 014°48'1 0.1
2015-Apr-13 20:33N 55°17' E 014°49'1 1.0
2015-Apr-13 19:33N 55°17' E 014°48'0 0.0
2015-Apr-13 18:21N 55°17' E 014°48'0 0.0
2015-Apr-13 17:33N 55°17' E 014°48'0 0.0
2015-Apr-13 16:33N 55°17' E 014°48'0 0.0
2015-Apr-13 15:33N 55°17' E 014°48'2 2.1
2015-Apr-13 14:34N 55°19' E 014°49'2 2.0
2015-Apr-13 13:30N 55°17' E 014°48'0 0.0
2015-Apr-13 12:12N 55°17' E 014°48'0 0.0
2015-Apr-13 11:30N 55°17' E 014°48'0 0.0
2015-Apr-13 10:33N 55°17' E 014°48'0 0.0
2015-Apr-13 09:33N 55°17' E 014°48'0 0.0
2015-Apr-13 08:33N 55°17' E 014°48'0 0.0
2015-Apr-13 07:15N 55°17' E 014°48'0 0.0
2015-Apr-13 06:33N 55°17' E 014°48'0 0.0
2015-Apr-13 05:33N 55°17' E 014°48'4 3.4
2015-Apr-13 04:32N 55°18' E 014°53'4 3.0
2015-Apr-13 03:23N 55°17' E 014°48'0 0.0
2015-Apr-13 02:29N 55°17' E 014°48'0 0.0
2015-Apr-13 01:29N 55°17' E 014°48'0 0.0
2015-Apr-13 00:29N 55°17' E 014°48'0 0.0
2015-Apr-12 23:23N 55°17' E 014°48'0 0.0
2015-Apr-12 22:29N 55°17' E 014°48'0 0.0
2015-Apr-12 21:29N 55°17' E 014°48'0 0.0
2015-Apr-12 20:29N 55°17' E 014°48'0 0.0
2015-Apr-12 19:29N 55°17' E 014°48'0 0.0
2015-Apr-12 18:29N 55°17' E 014°48'0 0.0
2015-Apr-12 17:29N 55°17' E 014°48'0 0.0
2015-Apr-12 16:28N 55°17' E 014°48'0 0.0
2015-Apr-12 15:28N 55°17' E 014°48'0 0.0
2015-Apr-12 14:28N 55°17' E 014°48'1 0.9
2015-Apr-12 13:33N 55°17' E 014°49'1 0.8
2015-Apr-12 12:33N 55°17' E 014°48'0 0.0
2015-Apr-12 11:27N 55°17' E 014°48'0 0.0
2015-Apr-12 10:33N 55°17' E 014°48'0 0.0
2015-Apr-12 09:33N 55°17' E 014°48'0 0.0
2015-Apr-12 08:27N 55°17' E 014°48'0 0.0
2015-Apr-12 07:33N 55°17' E 014°48'0 0.0
2015-Apr-12 06:33N 55°17' E 014°48'0 0.0
2015-Apr-12 05:33N 55°17' E 014°48'0 0.0
2015-Apr-12 04:27N 55°17' E 014°48'0 0.0
2015-Apr-12 03:33N 55°17' E 014°48'0 0.0
2015-Apr-12 02:33N 55°17' E 014°48'0 0.0
2015-Apr-12 01:33N 55°17' E 014°48'0 0.0
2015-Apr-12 00:32N 55°17' E 014°48'0 0.0
2015-Apr-11 23:33N 55°17' E 014°48'0 0.0
2015-Apr-11 22:32N 55°17' E 014°48'0 0.0
2015-Apr-11 21:33N 55°17' E 014°48'0 0.0
2015-Apr-11 20:33N 55°17' E 014°48'0 0.0
2015-Apr-11 19:33N 55°17' E 014°48'0 0.0
2015-Apr-11 18:27N 55°17' E 014°48'0 0.0
2015-Apr-11 17:33N 55°17' E 014°48'0 0.0
2015-Apr-11 16:26N 55°17' E 014°48'0 0.0
2015-Apr-11 15:32N 55°17' E 014°48'0 0.0
2015-Apr-11 14:32N 55°17' E 014°48'0 0.0
2015-Apr-11 13:32N 55°17' E 014°48'0 0.0
2015-Apr-11 12:32N 55°17' E 014°48'0 0.0
2015-Apr-11 11:32N 55°17' E 014°48'0 0.0
2015-Apr-11 10:32N 55°17' E 014°48'0 0.0
2015-Apr-11 09:26N 55°17' E 014°48'0 0.0
2015-Apr-11 08:26N 55°17' E 014°48'0 0.0
2015-Apr-11 07:32N 55°17' E 014°48'0 0.0
2015-Apr-11 06:32N 55°17' E 014°48'0 0.0
2015-Apr-11 05:32N 55°17' E 014°48'0 0.0
2015-Apr-11 04:32N 55°17' E 014°48'0 0.0
2015-Apr-11 03:32N 55°17' E 014°48'0 0.0
2015-Apr-11 02:32N 55°17' E 014°48'0 0.0
2015-Apr-11 01:32N 55°17' E 014°48'0 0.0
2015-Apr-11 00:32N 55°17' E 014°48'  
Track history (hours):
 
Tides and Currents Weather Stations Pressure Air Temp Water Temp Dewpoint Dewpoint Depression Visibility Wind Speed Wind Dir Waves Ship Positions

Mars

Last reported at 2015-Apr-21 00:07 UTC. Time now 2015-Apr-21 02:55 UTC.
Position N 55°17' E 014°49'.

Length 14 m; draft 1.7 m.

Type: Pilot. MMSI: 219001058.

Date/timePositionNaut miles runAvg speedWind from/ knotsBaromVisibWave heightAir tempDewpointWater temp
2015-Apr-21 00:07N 55°17' E 014°49'  
2015-Apr-14 23:19N 55°17' E 014°48'0 0.0
2015-Apr-14 22:31N 55°17' E 014°48'0 0.0
2015-Apr-14 21:21N 55°17' E 014°48'0 0.0
2015-Apr-14 20:27N 55°17' E 014°48'0 0.0
2015-Apr-14 19:27N 55°17' E 014°48'0 0.0
2015-Apr-14 18:33N 55°17' E 014°48'0 0.0
2015-Apr-14 17:33N 55°17' E 014°48'0 0.0
2015-Apr-14 16:33N 55°17' E 014°48'0 0.0
2015-Apr-14 15:27N 55°17' E 014°48'0 0.0
2015-Apr-14 14:33N 55°17' E 014°48'0 0.0
2015-Apr-14 13:33N 55°17' E 014°48'0 0.0
2015-Apr-14 12:33N 55°17' E 014°48'1 0.1
2015-Apr-13 20:33N 55°17' E 014°49'1 1.0
2015-Apr-13 19:33N 55°17' E 014°48'0 0.0
2015-Apr-13 18:21N 55°17' E 014°48'0 0.0
2015-Apr-13 17:33N 55°17' E 014°48'0 0.0
2015-Apr-13 16:33N 55°17' E 014°48'0 0.0
2015-Apr-13 15:33N 55°17' E 014°48'2 2.1
2015-Apr-13 14:34N 55°19' E 014°49'2 2.0
2015-Apr-13 13:30N 55°17' E 014°48'0 0.0
2015-Apr-13 12:12N 55°17' E 014°48'0 0.0
2015-Apr-13 11:30N 55°17' E 014°48'0 0.0
2015-Apr-13 10:33N 55°17' E 014°48'0 0.0
2015-Apr-13 09:33N 55°17' E 014°48'0 0.0
2015-Apr-13 08:33N 55°17' E 014°48'0 0.0
2015-Apr-13 07:15N 55°17' E 014°48'0 0.0
2015-Apr-13 06:33N 55°17' E 014°48'0 0.0
2015-Apr-13 05:33N 55°17' E 014°48'4 3.4
2015-Apr-13 04:32N 55°18' E 014°53'4 3.0
2015-Apr-13 03:23N 55°17' E 014°48'0 0.0
2015-Apr-13 02:29N 55°17' E 014°48'0 0.0
2015-Apr-13 01:29N 55°17' E 014°48'0 0.0
2015-Apr-13 00:29N 55°17' E 014°48'0 0.0
2015-Apr-12 23:23N 55°17' E 014°48'0 0.0
2015-Apr-12 22:29N 55°17' E 014°48'0 0.0
2015-Apr-12 21:29N 55°17' E 014°48'0 0.0
2015-Apr-12 20:29N 55°17' E 014°48'0 0.0
2015-Apr-12 19:29N 55°17' E 014°48'0 0.0
2015-Apr-12 18:29N 55°17' E 014°48'0 0.0
2015-Apr-12 17:29N 55°17' E 014°48'0 0.0
2015-Apr-12 16:28N 55°17' E 014°48'0 0.0
2015-Apr-12 15:28N 55°17' E 014°48'0 0.0
2015-Apr-12 14:28N 55°17' E 014°48'1 0.9
2015-Apr-12 13:33N 55°17' E 014°49'1 0.8
2015-Apr-12 12:33N 55°17' E 014°48'0 0.0
2015-Apr-12 11:27N 55°17' E 014°48'0 0.0
2015-Apr-12 10:33N 55°17' E 014°48'0 0.0
2015-Apr-12 09:33N 55°17' E 014°48'0 0.0
2015-Apr-12 08:27N 55°17' E 014°48'0 0.0
2015-Apr-12 07:33N 55°17' E 014°48'0 0.0
2015-Apr-12 06:33N 55°17' E 014°48'0 0.0
2015-Apr-12 05:33N 55°17' E 014°48'0 0.0
2015-Apr-12 04:27N 55°17' E 014°48'0 0.0
2015-Apr-12 03:33N 55°17' E 014°48'0 0.0
2015-Apr-12 02:33N 55°17' E 014°48'0 0.0
2015-Apr-12 01:33N 55°17' E 014°48'0 0.0
2015-Apr-12 00:32N 55°17' E 014°48'0 0.0
2015-Apr-11 23:33N 55°17' E 014°48'0 0.0
2015-Apr-11 22:32N 55°17' E 014°48'0 0.0
2015-Apr-11 21:33N 55°17' E 014°48'0 0.0
2015-Apr-11 20:33N 55°17' E 014°48'0 0.0
2015-Apr-11 19:33N 55°17' E 014°48'0 0.0
2015-Apr-11 18:27N 55°17' E 014°48'0 0.0
2015-Apr-11 17:33N 55°17' E 014°48'0 0.0
2015-Apr-11 16:26N 55°17' E 014°48'0 0.0
2015-Apr-11 15:32N 55°17' E 014°48'0 0.0
2015-Apr-11 14:32N 55°17' E 014°48'0 0.0
2015-Apr-11 13:32N 55°17' E 014°48'0 0.0
2015-Apr-11 12:32N 55°17' E 014°48'0 0.0
2015-Apr-11 11:32N 55°17' E 014°48'0 0.0
2015-Apr-11 10:32N 55°17' E 014°48'0 0.0
2015-Apr-11 09:26N 55°17' E 014°48'0 0.0
2015-Apr-11 08:26N 55°17' E 014°48'0 0.0
2015-Apr-11 07:32N 55°17' E 014°48'0 0.0
2015-Apr-11 06:32N 55°17' E 014°48'0 0.0
2015-Apr-11 05:32N 55°17' E 014°48'0 0.0
2015-Apr-11 04:32N 55°17' E 014°48'0 0.0
2015-Apr-11 03:32N 55°17' E 014°48'0 0.0
2015-Apr-11 02:32N 55°17' E 014°48'0 0.0
2015-Apr-11 01:32N 55°17' E 014°48'0 0.0
2015-Apr-11 00:32N 55°17' E 014°48'  

Dump ship's entire track history